CheckWX is a tool to help pilots better visualize weather data.  It is not intended as a substitute for an official pre-flight weather briefing.

21:27:42 UTC

LKMT METAR
Ostrava Leos Janáček Airport
Ostrava, Czech Republic
Current

28 mins ago

LKMT 132100Z 19010KT 9999 SCT028 04/M00 Q0990 NOSIG
Observed
Dec-13 @ 21:00 UTC
Wind
  • 190° at 10 KTS
Visibility
10,000+ meters
Flight Rules
VFR
Cloud Levels
  • Scattered at 2,800' AGL
Temperature
C / 39°F
Dewpoint
C / 32°F
Humidity
75%
Altimeter
29.23" Hg
Pressure
989.92 hPa
Previous

58 mins ago

LKMT 132030Z 19012KT 9999 SCT028 04/M00 Q0990 NOSIG
Observed
Dec-13 @ 20:30 UTC
Wind
  • 190° at 12 KTS
Visibility
10,000+ meters
Flight Rules
VFR
Cloud Levels
  • Scattered at 2,800' AGL
Temperature
C / 39°F
Dewpoint
C / 32°F
Humidity
75%
Altimeter
29.23" Hg
Pressure
989.92 hPa
Previous

1 hour ago

LKMT 132000Z 20010KT 9999 FEW034 SCT046 04/M00 Q0990 NOSIG
Observed
Dec-13 @ 20:00 UTC
Wind
  • 200° at 10 KTS
Visibility
10,000+ meters
Flight Rules
VFR
Cloud Levels
  • Few at 3,400' AGL
  • Scattered at 4,600' AGL
Temperature
C / 39°F
Dewpoint
C / 32°F
Humidity
75%
Altimeter
29.23" Hg
Pressure
989.92 hPa